createdAt,value
2023-02-12T00:00:23.579Z,43.33
2023-02-12T00:02:25.369Z,48.17
2023-02-12T00:04:26.957Z,47.90
2023-02-12T00:06:28.483Z,47.40
2023-02-12T00:08:30.074Z,49.30
2023-02-12T00:10:31.651Z,51.00
2023-02-12T00:12:33.175Z,46.10
2023-02-12T00:14:34.891Z,47.72
2023-02-12T00:16:36.544Z,44.90
2023-02-12T00:18:38.151Z,46.08
2023-02-12T00:20:39.776Z,45.85
2023-02-12T00:22:41.295Z,46.38
2023-02-12T00:24:42.792Z,52.10
2023-02-12T00:26:44.364Z,50.15
2023-02-12T00:28:45.924Z,46.00
2023-02-12T00:30:47.588Z,49.50
2023-02-12T00:32:49.230Z,46.95
2023-02-12T00:34:50.747Z,47.88
2023-02-12T00:36:52.291Z,46.58
2023-02-12T00:38:55.927Z,44.05
2023-02-12T00:40:57.761Z,40.05
2023-02-12T00:42:59.244Z,44.33
2023-02-12T00:45:00.751Z,38.08
2023-02-12T00:47:02.542Z,42.22
2023-02-12T00:49:04.176Z,28.55
2023-02-12T00:51:06.398Z,37.55
2023-02-12T00:53:08.405Z,38.70
2023-02-12T00:55:09.971Z,34.42
2023-02-12T00:57:11.500Z,35.22
2023-02-12T00:59:12.977Z,38.17
2023-02-12T01:01:14.628Z,37.50
2023-02-12T01:03:16.738Z,38.75
2023-02-12T01:05:19.612Z,39.00
2023-02-12T01:07:21.209Z,39.65
2023-02-12T01:09:22.768Z,40.25
2023-02-12T01:11:24.296Z,35.28
2023-02-12T01:13:26.983Z,38.20
2023-02-12T01:15:28.619Z,34.67
2023-02-12T01:17:30.194Z,34.40
2023-02-12T01:19:31.723Z,34.35
2023-02-12T01:21:34.705Z,29.13
2023-02-12T01:23:36.214Z,25.83
2023-02-12T01:25:38.782Z,32.13
2023-02-12T01:27:40.559Z,32.25
2023-02-12T01:29:44.697Z,34.80
2023-02-12T01:31:46.412Z,30.50
2023-02-12T01:33:49.958Z,32.08
2023-02-12T01:35:51.462Z,30.38
2023-02-12T01:37:53.046Z,32.67
2023-02-12T01:39:54.547Z,29.58
2023-02-12T01:41:56.997Z,30.23
2023-02-12T01:44:09.317Z,34.17
2023-02-12T01:46:14.201Z,33.85
2023-02-12T01:48:18.493Z,35.42
2023-02-12T01:50:21.298Z,34.75
2023-02-12T01:52:33.590Z,31.90
2023-02-12T01:54:37.238Z,33.47
2023-02-12T01:56:39.670Z,35.45
2023-02-12T01:58:44.081Z,32.55
2023-02-12T02:00:45.745Z,35.35
2023-02-12T02:02:53.893Z,37.22
2023-02-12T02:05:02.794Z,34.97
2023-02-12T02:07:06.870Z,37.00
2023-02-12T02:09:08.841Z,37.15
2023-02-12T02:11:29.278Z,33.65
2023-02-12T02:13:49.215Z,36.60
2023-02-12T02:15:59.844Z,34.35
2023-02-12T02:18:12.838Z,37.78
2023-02-12T02:20:45.341Z,30.92
2023-02-12T02:23:10.546Z,33.35
2023-02-12T02:25:32.599Z,29.77
2023-02-12T02:28:13.173Z,27.55
2023-02-12T02:30:19.285Z,24.17
2023-02-12T02:32:27.105Z,23.27
2023-02-12T02:34:38.627Z,21.67
2023-02-12T02:36:59.586Z,27.83
2023-02-12T02:39:18.545Z,28.30
2023-02-12T02:41:29.113Z,23.90
2023-02-12T02:43:36.385Z,25.55
2023-02-12T02:45:42.867Z,23.83
2023-02-12T02:47:58.257Z,18.88
2023-02-12T02:50:05.888Z,20.45
2023-02-12T02:52:12.334Z,22.00
2023-02-12T02:54:19.744Z,27.88
2023-02-12T02:56:24.393Z,23.17
2023-02-12T02:58:40.629Z,29.45
2023-02-12T03:00:47.297Z,17.98
2023-02-12T03:02:54.683Z,20.92
2023-02-12T03:05:01.883Z,16.38
2023-02-12T03:07:10.500Z,18.90
2023-02-12T03:09:26.938Z,17.63
2023-02-12T03:11:31.470Z,18.35
2023-02-12T03:13:39.037Z,16.70
2023-02-12T03:16:05.541Z,14.75
2023-02-12T03:18:18.321Z,13.88
2023-02-12T03:20:24.568Z,15.50
2023-02-12T03:22:33.752Z,10.27
2023-02-12T03:24:53.415Z,11.50
2023-02-12T03:27:03.031Z,12.38
2023-02-12T03:29:04.710Z,15.85
2023-02-12T03:31:25.169Z,13.38
2023-02-12T03:33:41.847Z,13.25
2023-02-12T03:35:58.222Z,10.35
2023-02-12T03:38:14.761Z,6.70
2023-02-12T03:40:21.158Z,9.88
2023-02-12T03:42:32.104Z,7.65
2023-02-12T03:44:55.608Z,8.27
2023-02-12T03:47:05.734Z,13.32
2023-02-12T03:49:09.971Z,6.20
2023-02-12T03:51:23.896Z,5.78
2023-02-12T03:53:28.724Z,5.93
2023-02-12T03:55:33.852Z,5.47
2023-02-12T03:57:42.385Z,7.22
2023-02-12T03:59:45.814Z,6.75
2023-02-12T04:01:48.641Z,7.55
2023-02-12T04:03:50.397Z,7.72
2023-02-12T04:05:51.888Z,7.72
2023-02-12T04:07:55.633Z,8.82
2023-02-12T04:09:57.181Z,11.55
2023-02-12T04:12:21.525Z,8.02
2023-02-12T04:14:35.010Z,10.25
2023-02-12T04:17:03.180Z,7.22
2023-02-12T04:19:05.173Z,8.60
2023-02-12T04:21:37.188Z,10.68
2023-02-12T04:24:14.257Z,14.85
2023-02-12T04:26:24.189Z,6.65
2023-02-12T04:28:41.432Z,6.68
2023-02-12T04:31:06.882Z,7.70
2023-02-12T04:33:12.015Z,5.95
2023-02-12T04:35:30.054Z,4.68
2023-02-12T04:37:42.172Z,4.07
2023-02-12T04:39:46.059Z,3.35
2023-02-12T04:41:48.161Z,5.57
2023-02-12T04:43:49.934Z,5.18
2023-02-12T04:45:51.583Z,4.60
2023-02-12T04:47:53.679Z,4.60
2023-02-12T04:49:55.245Z,9.00
2023-02-12T04:51:56.917Z,4.13
2023-02-12T04:53:58.409Z,3.67
2023-02-12T04:55:59.940Z,3.97
2023-02-12T04:58:01.720Z,3.80
2023-02-12T05:00:08.348Z,6.93
2023-02-12T05:02:13.000Z,4.28
2023-02-12T05:04:16.071Z,5.25
2023-02-12T05:06:17.774Z,5.72
2023-02-12T05:08:19.307Z,4.45
2023-02-12T05:10:20.844Z,7.32
2023-02-12T05:12:22.364Z,4.70
2023-02-12T05:14:26.972Z,6.57
2023-02-12T05:16:28.504Z,4.80
2023-02-12T05:18:30.891Z,4.05
2023-02-12T05:20:32.382Z,5.43
2023-02-12T05:22:34.696Z,5.20
2023-02-12T05:24:37.237Z,2.72
2023-02-12T05:26:38.876Z,5.45
2023-02-12T05:28:40.663Z,3.50
2023-02-12T05:30:42.201Z,4.70
2023-02-12T05:32:43.754Z,3.00
2023-02-12T05:34:45.266Z,4.35
2023-02-12T05:36:46.838Z,4.57
2023-02-12T05:38:49.122Z,3.63
2023-02-12T05:40:50.639Z,7.18
2023-02-12T05:42:52.195Z,6.60
2023-02-12T05:44:53.743Z,6.63
2023-02-12T05:46:55.278Z,5.38
2023-02-12T05:48:56.823Z,5.55
2023-02-12T05:51:09.643Z,4.60
2023-02-12T05:53:11.195Z,4.90
2023-02-12T05:55:12.734Z,4.93
2023-02-12T05:57:14.232Z,4.93
2023-02-12T05:59:19.060Z,5.30
2023-02-12T06:01:24.065Z,5.20
2023-02-12T06:03:25.584Z,5.63
2023-02-12T06:05:27.142Z,5.28
2023-02-12T06:07:28.740Z,5.63
2023-02-12T06:09:30.354Z,5.72
2023-02-12T06:11:31.837Z,6.90
2023-02-12T06:13:33.917Z,10.55
2023-02-12T06:15:38.294Z,7.28
2023-02-12T06:17:39.827Z,6.30
2023-02-12T06:19:41.613Z,11.63
2023-02-12T06:21:43.364Z,10.93
2023-02-12T06:23:44.973Z,14.15
2023-02-12T06:25:46.533Z,11.60
2023-02-12T06:27:48.062Z,18.73
2023-02-12T06:29:49.555Z,11.25
2023-02-12T06:31:51.193Z,10.85
2023-02-12T06:33:53.974Z,9.57
2023-02-12T06:35:55.928Z,12.38
2023-02-12T06:37:57.780Z,21.88
2023-02-12T06:39:59.296Z,17.67
2023-02-12T06:42:01.274Z,12.98
2023-02-12T06:44:02.955Z,9.88
2023-02-12T06:46:05.710Z,12.38
2023-02-12T06:48:07.269Z,15.27
2023-02-12T06:50:09.170Z,18.58
2023-02-12T06:52:10.675Z,16.80
2023-02-12T06:54:14.485Z,8.05
2023-02-12T06:56:15.985Z,9.68
2023-02-12T06:58:17.548Z,9.25
2023-02-12T07:00:19.598Z,9.90
2023-02-12T07:02:21.249Z,10.80
2023-02-12T07:04:22.789Z,16.70
2023-02-12T07:06:26.454Z,11.80
2023-02-12T07:08:27.948Z,22.02
2023-02-12T07:10:29.527Z,23.05
2023-02-12T07:12:33.505Z,15.65
2023-02-12T07:14:35.092Z,11.95
2023-02-12T07:16:36.659Z,11.30
2023-02-12T07:18:39.384Z,31.23
2023-02-12T07:20:40.977Z,14.13
2023-02-12T07:22:42.516Z,15.55
2023-02-12T07:24:44.116Z,11.18
2023-02-12T07:26:45.611Z,32.13
2023-02-12T07:28:47.387Z,17.60
2023-02-12T07:30:48.961Z,17.98
2023-02-12T07:32:50.500Z,12.77
2023-02-12T07:34:52.030Z,22.15
2023-02-12T07:36:53.568Z,13.23
2023-02-12T07:38:56.350Z,22.65
2023-02-12T07:41:10.424Z,20.45
2023-02-12T07:43:12.158Z,24.63
2023-02-12T07:45:13.657Z,16.05
2023-02-12T07:47:16.558Z,14.88
2023-02-12T07:49:22.733Z,14.52
2023-02-12T07:51:24.727Z,9.70
2023-02-12T07:53:26.653Z,8.45
2023-02-12T07:55:28.212Z,7.65
2023-02-12T07:57:29.751Z,5.22
2023-02-12T07:59:31.267Z,5.10
2023-02-12T08:01:37.649Z,8.30
2023-02-12T08:03:39.212Z,4.88
2023-02-12T08:05:40.916Z,13.77
2023-02-12T08:07:42.450Z,32.17
2023-02-12T08:09:43.961Z,38.00
2023-02-12T08:11:46.201Z,60.08
2023-02-12T08:13:47.946Z,30.02
2023-02-12T08:15:49.525Z,58.90
2023-02-12T08:17:51.092Z,105.72
2023-02-12T08:19:52.634Z,27.88
2023-02-12T08:21:55.499Z,28.52
2023-02-12T08:23:58.807Z,16.48
2023-02-12T08:26:13.618Z,23.38
2023-02-12T08:28:15.203Z,45.78
2023-02-12T08:30:17.005Z,17.05
2023-02-12T08:32:18.548Z,16.67
2023-02-12T08:34:22.591Z,15.88
2023-02-12T08:36:26.372Z,23.58
2023-02-12T08:38:27.945Z,15.35
2023-02-12T08:40:29.448Z,18.42
2023-02-12T08:42:30.942Z,10.50
2023-02-12T08:44:32.696Z,20.75
2023-02-12T08:46:36.649Z,32.05
2023-02-12T08:48:39.520Z,16.20
2023-02-12T08:50:41.082Z,22.27
2023-02-12T08:52:44.005Z,13.07
2023-02-12T08:54:45.551Z,16.08
2023-02-12T08:56:47.256Z,16.95
2023-02-12T08:58:48.857Z,15.52
2023-02-12T09:00:50.383Z,17.67
2023-02-12T09:02:51.963Z,10.07
2023-02-12T09:04:53.553Z,7.82
2023-02-12T09:06:55.667Z,8.68
2023-02-12T09:08:57.900Z,8.10
2023-02-12T09:10:59.564Z,11.30
2023-02-12T09:13:01.069Z,8.75
2023-02-12T09:15:02.849Z,8.73
2023-02-12T09:17:04.372Z,17.00
2023-02-12T09:19:07.207Z,6.32
2023-02-12T09:21:17.261Z,7.97
2023-02-12T09:23:18.832Z,6.97
2023-02-12T09:25:20.355Z,14.20
2023-02-12T09:27:21.856Z,6.53
2023-02-12T09:29:23.618Z,6.68
2023-02-12T09:31:30.787Z,9.18
2023-02-12T09:33:32.527Z,9.88
2023-02-12T09:35:36.080Z,7.40
2023-02-12T09:37:37.633Z,5.05
2023-02-12T09:39:39.276Z,9.65
2023-02-12T09:41:41.961Z,9.98
2023-02-12T09:44:21.631Z,14.05
2023-02-12T09:48:58.394Z,9.30
2023-02-12T09:51:07.134Z,7.97
2023-02-12T09:53:13.197Z,6.00
2023-02-12T09:55:17.465Z,63.45
2023-02-12T09:57:35.765Z,16.15
2023-02-12T09:59:43.298Z,16.58
2023-02-12T10:01:45.574Z,6.22
2023-02-12T10:03:52.200Z,5.18
2023-02-12T10:06:18.151Z,5.28
2023-02-12T10:08:38.352Z,48.10
2023-02-12T10:10:53.941Z,20.38
2023-02-12T10:13:12.924Z,18.95
2023-02-12T10:15:34.074Z,16.30
2023-02-12T10:17:48.986Z,7.03
2023-02-12T10:20:21.180Z,3.90
2023-02-12T10:23:14.436Z,2.85
2023-02-12T10:25:26.755Z,5.28
2023-02-12T10:27:41.802Z,3.25
2023-02-12T10:29:45.819Z,3.90
2023-02-12T10:31:53.205Z,6.95
2023-02-12T10:33:57.116Z,3.55
2023-02-12T10:36:11.997Z,3.30
2023-02-12T10:38:21.519Z,4.22
2023-02-12T10:40:33.959Z,3.42
2023-02-12T10:42:41.036Z,3.85
2023-02-12T10:44:42.828Z,9.88
2023-02-12T10:46:44.527Z,7.97
2023-02-12T10:48:49.628Z,7.55
2023-02-12T10:51:20.682Z,10.65
2023-02-12T10:53:31.358Z,10.52
2023-02-12T10:55:35.201Z,20.73
2023-02-12T10:57:39.335Z,10.13
2023-02-12T10:59:42.966Z,26.35
2023-02-12T11:01:47.718Z,19.55
2023-02-12T11:03:52.521Z,16.95
2023-02-12T11:05:54.891Z,11.30
2023-02-12T11:07:57.746Z,7.22
2023-02-12T11:09:59.290Z,4.65
2023-02-12T11:12:00.988Z,18.15
2023-02-12T11:14:21.156Z,8.15
2023-02-12T11:16:34.573Z,23.92
2023-02-12T11:18:37.412Z,57.65
2023-02-12T11:20:55.071Z,5.85
2023-02-12T11:23:06.425Z,33.22
2023-02-12T11:25:16.911Z,23.40
2023-02-12T11:27:22.850Z,9.07
2023-02-12T11:29:24.659Z,10.00
2023-02-12T11:31:31.714Z,4.88
2023-02-12T11:33:38.143Z,71.38
2023-02-12T11:35:49.743Z,9.68
2023-02-12T11:38:03.540Z,7.28
2023-02-12T11:40:06.362Z,8.15
2023-02-12T11:42:17.816Z,8.93
2023-02-12T11:44:26.222Z,17.02
2023-02-12T11:46:32.408Z,5.90
2023-02-12T11:48:39.222Z,7.38
2023-02-12T11:50:48.303Z,61.45
2023-02-12T11:52:52.105Z,13.60
2023-02-12T11:54:57.718Z,23.15
2023-02-12T11:56:59.225Z,47.67
2023-02-12T11:59:16.615Z,55.85
2023-02-12T12:01:28.379Z,49.47
2023-02-12T12:03:38.961Z,25.30
2023-02-12T12:05:52.762Z,6.50
2023-02-12T12:07:59.685Z,9.52
2023-02-12T12:10:13.818Z,14.55
2023-02-12T12:12:38.833Z,5.18
2023-02-12T12:15:13.038Z,9.23
2023-02-12T12:17:35.646Z,8.20
2023-02-12T12:20:21.983Z,13.07
2023-02-12T12:22:58.100Z,22.90
2023-02-12T12:25:23.803Z,9.38
2023-02-12T12:27:55.041Z,9.32
2023-02-12T12:30:06.768Z,9.95
2023-02-12T12:32:12.149Z,6.57
2023-02-12T12:34:17.287Z,7.82
2023-02-12T12:36:40.017Z,29.42
2023-02-12T12:38:53.606Z,24.92
2023-02-12T12:40:55.073Z,5.07
2023-02-12T12:43:11.347Z,10.85
2023-02-12T12:45:31.270Z,10.13
2023-02-12T12:48:25.377Z,7.32
2023-02-12T12:50:48.994Z,10.38
2023-02-12T12:52:58.343Z,12.63
2023-02-12T12:55:19.118Z,6.72
2023-02-12T12:57:38.489Z,8.95
2023-02-12T12:59:53.792Z,5.78
2023-02-12T13:02:14.160Z,7.38
2023-02-12T13:04:37.148Z,13.63
2023-02-12T13:06:57.361Z,8.48
2023-02-12T13:09:20.447Z,11.90
2023-02-12T13:11:40.889Z,11.05
2023-02-12T13:13:46.688Z,9.63
2023-02-12T13:16:06.640Z,6.40
2023-02-12T13:18:41.649Z,7.88
2023-02-12T13:20:46.056Z,7.65
2023-02-12T13:22:56.710Z,13.15
2023-02-12T13:25:08.207Z,14.77
2023-02-12T13:27:17.001Z,46.85
2023-02-12T13:29:28.435Z,169.73
2023-02-12T13:31:34.390Z,20.65
2023-02-12T13:33:42.204Z,15.23
2023-02-12T13:35:47.783Z,21.63
2023-02-12T13:37:52.925Z,12.40
2023-02-12T13:39:59.668Z,26.02
2023-02-12T13:42:12.430Z,23.10
2023-02-12T13:44:21.604Z,14.88
2023-02-12T13:46:25.239Z,59.58
2023-02-12T13:48:48.479Z,21.75
2023-02-12T13:51:02.009Z,19.08
2023-02-12T13:53:27.118Z,10.93
2023-02-12T13:55:28.602Z,13.48
2023-02-12T13:57:30.279Z,24.75
2023-02-12T13:59:32.602Z,16.27
2023-02-12T14:01:41.851Z,18.98
2023-02-12T14:03:43.553Z,12.77
2023-02-12T14:05:45.181Z,9.45
2023-02-12T14:08:07.110Z,10.52
2023-02-12T14:10:20.422Z,10.15
2023-02-12T14:12:24.638Z,9.73
2023-02-12T14:14:30.945Z,16.10
2023-02-12T14:16:32.456Z,10.57
2023-02-12T14:18:37.395Z,24.58
2023-02-12T14:20:40.318Z,30.38
2023-02-12T14:22:41.827Z,11.27
2023-02-12T14:24:52.053Z,8.77
2023-02-12T14:26:53.754Z,9.43
2023-02-12T14:29:00.268Z,12.48
2023-02-12T14:31:20.843Z,10.70
2023-02-12T14:33:25.394Z,16.00
2023-02-12T14:35:27.447Z,16.08
2023-02-12T14:37:37.275Z,11.25
2023-02-12T14:39:39.349Z,15.75
2023-02-12T14:41:42.442Z,9.68
2023-02-12T14:44:02.289Z,10.68
2023-02-12T14:46:36.385Z,11.25
2023-02-12T14:49:08.127Z,8.85
2023-02-12T14:51:36.821Z,15.23
2023-02-12T14:53:40.166Z,11.95
2023-02-12T14:55:46.936Z,11.20
2023-02-12T14:57:49.203Z,13.90
2023-02-12T14:59:54.742Z,11.80
2023-02-12T15:02:00.147Z,10.93
2023-02-12T15:04:14.908Z,10.93
2023-02-12T15:06:38.273Z,9.00
2023-02-12T15:08:52.949Z,9.73
2023-02-12T15:11:02.352Z,8.55
2023-02-12T15:13:20.058Z,10.77
2023-02-12T15:15:30.970Z,9.60
2023-02-12T15:17:37.900Z,11.85
2023-02-12T15:20:00.544Z,88.80
2023-02-12T15:22:02.067Z,84.82
2023-02-12T15:24:05.741Z,46.88
2023-02-12T15:26:20.674Z,13.93
2023-02-12T15:28:30.894Z,17.52
2023-02-12T15:30:35.680Z,10.65
2023-02-12T15:32:38.545Z,12.00
2023-02-12T15:34:41.901Z,15.45
2023-02-12T15:36:45.864Z,22.55
2023-02-12T15:39:04.288Z,53.17
2023-02-12T15:41:06.717Z,17.73
2023-02-12T15:43:18.029Z,20.90
2023-02-12T15:45:40.201Z,14.20
2023-02-12T15:47:42.776Z,25.48
2023-02-12T15:49:44.409Z,17.70
2023-02-12T15:51:45.937Z,26.35
2023-02-12T15:53:47.942Z,25.42
2023-02-12T15:55:50.217Z,24.33
2023-02-12T15:57:57.651Z,41.80
2023-02-12T16:00:06.963Z,32.83
2023-02-12T16:02:19.181Z,55.10
2023-02-12T16:04:21.303Z,76.90
2023-02-12T16:06:24.974Z,60.35
2023-02-12T16:08:26.760Z,99.32
2023-02-12T16:10:28.915Z,85.63
2023-02-12T16:12:33.942Z,57.40
2023-02-12T16:14:46.567Z,146.02
2023-02-12T16:16:51.487Z,94.18
2023-02-12T16:19:06.672Z,48.72
2023-02-12T16:21:18.775Z,28.13
2023-02-12T16:23:23.738Z,20.80
2023-02-12T16:25:33.597Z,71.93
2023-02-12T16:27:35.318Z,26.05
2023-02-12T16:29:40.044Z,15.60
2023-02-12T16:31:56.842Z,16.02
2023-02-12T16:33:59.402Z,28.13
2023-02-12T16:36:14.014Z,42.38
2023-02-12T16:38:27.571Z,59.00
2023-02-12T16:40:32.979Z,65.03
2023-02-12T16:42:34.638Z,77.05
2023-02-12T16:44:36.230Z,106.70
2023-02-12T16:46:52.490Z,136.23
2023-02-12T16:48:57.523Z,83.07
2023-02-12T16:50:59.515Z,90.57
2023-02-12T16:53:04.115Z,81.82
2023-02-12T16:55:13.061Z,80.65
2023-02-12T16:57:14.554Z,77.47
2023-02-12T16:59:16.075Z,84.18
2023-02-12T17:01:23.704Z,114.60
2023-02-12T17:03:26.378Z,105.38
2023-02-12T17:05:28.015Z,110.20
2023-02-12T17:07:31.116Z,103.82
2023-02-12T17:09:32.778Z,103.70
2023-02-12T17:11:34.309Z,101.28
2023-02-12T17:13:35.966Z,147.27
2023-02-12T17:15:45.556Z,139.20
2023-02-12T17:19:48.827Z,105.70
2023-02-12T17:21:51.940Z,110.13
2023-02-12T17:23:56.152Z,134.18
2023-02-12T17:25:57.917Z,136.50
2023-02-12T17:27:59.919Z,164.10
2023-02-12T17:30:01.514Z,116.35
2023-02-12T17:32:03.236Z,110.70
2023-02-12T17:34:05.796Z,138.77
2023-02-12T17:36:07.712Z,154.52
2023-02-12T17:38:09.500Z,153.68
2023-02-12T17:40:12.659Z,137.77
2023-02-12T17:42:14.259Z,136.40
2023-02-12T17:44:16.302Z,126.15
2023-02-12T17:46:23.580Z,140.63
2023-02-12T17:48:25.127Z,139.00
2023-02-12T17:50:26.699Z,122.82
2023-02-12T17:52:28.220Z,110.75
2023-02-12T17:54:29.729Z,93.30
2023-02-12T17:56:31.309Z,86.78
2023-02-12T17:58:32.834Z,146.18
2023-02-12T18:00:34.474Z,100.32
2023-02-12T18:02:36.338Z,149.38
2023-02-12T18:04:38.102Z,98.72
2023-02-12T18:06:39.671Z,96.93
2023-02-12T18:08:41.377Z,94.97
2023-02-12T18:10:44.838Z,78.10
2023-02-12T18:12:46.366Z,78.20
2023-02-12T18:14:48.046Z,67.80
2023-02-12T18:16:49.838Z,73.50
2023-02-12T18:18:51.964Z,80.30
2023-02-12T18:20:53.522Z,90.47
2023-02-12T18:22:55.152Z,86.60
2023-02-12T18:24:57.642Z,104.80
2023-02-12T18:26:59.163Z,177.43
2023-02-12T18:29:01.217Z,102.68
2023-02-12T18:31:03.880Z,88.75
2023-02-12T18:33:06.199Z,80.85
2023-02-12T18:35:08.652Z,76.32
2023-02-12T18:37:12.376Z,62.20
2023-02-12T18:39:13.889Z,93.35
2023-02-12T18:41:19.266Z,86.93
2023-02-12T18:43:21.154Z,200.45
2023-02-12T18:45:22.756Z,140.60
2023-02-12T18:47:24.283Z,144.82
2023-02-12T18:49:28.921Z,52.28
2023-02-12T18:51:33.843Z,43.97
2023-02-12T18:53:35.418Z,48.20
2023-02-12T18:55:40.432Z,68.28
2023-02-12T18:57:41.922Z,73.43
2023-02-12T18:59:43.437Z,113.18
2023-02-12T19:01:47.219Z,170.90
2023-02-12T19:03:49.483Z,172.40
2023-02-12T19:05:51.136Z,174.75
2023-02-12T19:07:52.825Z,163.45
2023-02-12T19:09:54.393Z,194.55
2023-02-12T19:11:58.078Z,195.27
2023-02-12T19:13:59.886Z,197.00
2023-02-12T19:16:09.483Z,151.63
2023-02-12T19:18:11.086Z,161.32
2023-02-12T19:20:14.793Z,124.90
2023-02-12T19:22:16.591Z,142.63
2023-02-12T19:24:18.677Z,118.75
2023-02-12T19:26:20.316Z,108.32
2023-02-12T19:28:21.890Z,130.90
2023-02-12T19:30:23.445Z,91.18
2023-02-12T19:32:24.995Z,84.70
2023-02-12T19:34:27.314Z,138.15
2023-02-12T19:36:32.861Z,50.40
2023-02-12T19:38:35.491Z,65.95
2023-02-12T19:40:37.079Z,68.63
2023-02-12T19:42:38.633Z,57.75
2023-02-12T19:44:41.066Z,74.07
2023-02-12T19:46:43.369Z,30.92
2023-02-12T19:48:46.607Z,26.10
2023-02-12T19:50:48.308Z,29.70
2023-02-12T19:52:50.368Z,33.22
2023-02-12T19:54:52.068Z,43.67
2023-02-12T19:56:55.458Z,42.10
2023-02-12T19:58:58.102Z,47.75
2023-02-12T20:01:00.559Z,48.97
2023-02-12T20:03:02.349Z,54.45
2023-02-12T20:05:04.133Z,54.60
2023-02-12T20:07:05.709Z,48.88
2023-02-12T20:09:07.949Z,47.55
2023-02-12T20:11:12.134Z,44.40
2023-02-12T20:13:13.903Z,41.50
2023-02-12T20:15:15.935Z,49.40
2023-02-12T20:17:18.741Z,50.55
2023-02-12T20:19:23.395Z,49.20
2023-02-12T20:21:28.295Z,50.92
2023-02-12T20:23:30.001Z,48.35
2023-02-12T20:25:31.624Z,43.63
2023-02-12T20:27:34.277Z,45.28
2023-02-12T20:29:35.847Z,51.83
2023-02-12T20:31:38.201Z,50.83
2023-02-12T20:33:41.108Z,53.50
2023-02-12T20:35:42.906Z,45.13
2023-02-12T20:37:46.065Z,44.85
2023-02-12T20:39:48.265Z,47.47
2023-02-12T20:41:50.102Z,46.45
2023-02-12T20:43:51.913Z,49.35
2023-02-12T20:45:53.606Z,43.17
2023-02-12T20:47:55.270Z,41.30
2023-02-12T20:49:57.704Z,38.83
2023-02-12T20:51:59.537Z,38.25
2023-02-12T20:54:02.648Z,38.95
2023-02-12T20:56:06.903Z,38.67
2023-02-12T20:58:08.421Z,42.55
2023-02-12T21:00:10.516Z,40.88
2023-02-12T21:02:12.281Z,60.90
2023-02-12T21:04:16.873Z,66.25
2023-02-12T21:06:20.074Z,54.22
2023-02-12T21:08:21.591Z,53.00
2023-02-12T21:10:23.495Z,50.00
2023-02-12T21:12:25.248Z,48.00
2023-02-12T21:14:26.830Z,44.35
2023-02-12T21:16:31.394Z,66.40
2023-02-12T21:18:33.194Z,68.10
2023-02-12T21:20:36.066Z,60.03
2023-02-12T21:22:37.629Z,57.72
2023-02-12T21:24:39.131Z,50.03
2023-02-12T21:26:40.783Z,43.85
2023-02-12T21:28:44.034Z,43.13
2023-02-12T21:30:46.371Z,39.80
2023-02-12T21:32:47.884Z,40.38
2023-02-12T21:34:49.434Z,34.88
2023-02-12T21:36:54.595Z,33.42
2023-02-12T21:38:56.440Z,33.45
2023-02-12T21:41:05.443Z,33.40
2023-02-12T21:43:06.959Z,23.63
2023-02-12T21:45:09.013Z,30.60
2023-02-12T21:47:10.536Z,32.70
2023-02-12T21:49:13.677Z,31.40
2023-02-12T21:51:32.912Z,43.95
2023-02-12T21:53:34.510Z,45.38
2023-02-12T21:55:37.849Z,48.50
2023-02-12T21:57:39.352Z,47.97
2023-02-12T21:59:41.018Z,51.88
2023-02-12T22:01:46.201Z,46.25
2023-02-12T22:03:47.711Z,40.88
2023-02-12T22:05:49.301Z,46.53
2023-02-12T22:07:51.562Z,44.72
2023-02-12T22:09:55.886Z,24.20
2023-02-12T22:11:57.513Z,22.45
2023-02-12T22:13:59.180Z,21.90
2023-02-12T22:16:17.337Z,21.98
2023-02-12T22:18:18.888Z,23.52
2023-02-12T22:20:20.510Z,22.77
2023-02-12T22:22:22.177Z,23.13
2023-02-12T22:24:23.792Z,23.60
2023-02-12T22:26:27.861Z,26.52
2023-02-12T22:28:29.458Z,26.80
2023-02-12T22:30:31.050Z,28.77
2023-02-12T22:32:32.779Z,31.55
2023-02-12T22:34:34.362Z,37.78
2023-02-12T22:36:37.989Z,51.72
2023-02-12T22:38:40.679Z,49.08
2023-02-12T22:40:42.213Z,46.50
2023-02-12T22:42:43.716Z,42.65
2023-02-12T22:44:45.221Z,32.53
2023-02-12T22:46:47.081Z,41.78
2023-02-12T22:48:48.639Z,38.08
2023-02-12T22:50:50.306Z,36.50
2023-02-12T22:52:51.774Z,35.35
2023-02-12T22:54:53.725Z,36.08
2023-02-12T22:56:55.236Z,33.33
2023-02-12T22:58:59.110Z,30.33
2023-02-12T23:01:15.776Z,31.27
2023-02-12T23:03:17.427Z,44.88
2023-02-12T23:05:18.935Z,36.55
2023-02-12T23:07:20.474Z,39.78
2023-02-12T23:09:21.960Z,129.63
2023-02-12T23:11:24.584Z,38.20
2023-02-12T23:13:29.843Z,33.17
2023-02-12T23:15:32.098Z,25.30
2023-02-12T23:17:33.670Z,28.60
2023-02-12T23:19:36.353Z,29.10
2023-02-12T23:21:38.034Z,26.17
2023-02-12T23:23:39.745Z,22.60
2023-02-12T23:25:42.064Z,25.25
2023-02-12T23:27:43.609Z,26.77
2023-02-12T23:29:45.133Z,24.23
2023-02-12T23:31:46.812Z,23.02
2023-02-12T23:33:48.473Z,22.35
2023-02-12T23:35:50.332Z,23.52
2023-02-12T23:37:52.260Z,24.45
2023-02-12T23:39:53.801Z,23.48
2023-02-12T23:41:55.359Z,22.23
2023-02-12T23:43:56.986Z,21.55
2023-02-12T23:45:59.114Z,22.25
2023-02-12T23:48:00.770Z,22.30
2023-02-12T23:50:02.305Z,23.50
2023-02-12T23:52:04.038Z,23.42
2023-02-12T23:54:05.622Z,24.73
2023-02-12T23:56:07.378Z,26.15
2023-02-12T23:58:09.905Z,30.75
